sensor_id;sensor_type;location;lat;lon;timestamp;P1;durP1;ratioP1;P2;durP2;ratioP2
52512;SDS011;38422;53.172;6.974;2024-03-07T00:02:13;10.95;;;7.70;;
52512;SDS011;38422;53.172;6.974;2024-03-07T00:04:39;10.90;;;7.80;;
52512;SDS011;38422;53.172;6.974;2024-03-07T00:07:05;10.98;;;7.68;;
52512;SDS011;38422;53.172;6.974;2024-03-07T00:09:32;12.10;;;8.43;;
52512;SDS011;38422;53.172;6.974;2024-03-07T00:11:59;9.75;;;7.65;;
52512;SDS011;38422;53.172;6.974;2024-03-07T00:14:32;11.77;;;7.60;;
52512;SDS011;38422;53.172;6.974;2024-03-07T00:17:00;10.75;;;7.75;;
52512;SDS011;38422;53.172;6.974;2024-03-07T00:19:26;9.35;;;7.45;;
52512;SDS011;38422;53.172;6.974;2024-03-07T00:21:52;10.73;;;8.10;;
52512;SDS011;38422;53.172;6.974;2024-03-07T00:24:18;11.32;;;8.23;;
52512;SDS011;38422;53.172;6.974;2024-03-07T00:26:48;10.30;;;7.60;;
52512;SDS011;38422;53.172;6.974;2024-03-07T00:29:18;9.27;;;7.18;;
52512;SDS011;38422;53.172;6.974;2024-03-07T00:31:44;10.93;;;7.30;;
52512;SDS011;38422;53.172;6.974;2024-03-07T00:34:14;10.48;;;7.78;;
52512;SDS011;38422;53.172;6.974;2024-03-07T00:36:42;10.27;;;7.70;;
52512;SDS011;38422;53.172;6.974;2024-03-07T00:39:08;12.25;;;8.10;;
52512;SDS011;38422;53.172;6.974;2024-03-07T00:41:37;10.20;;;7.80;;
52512;SDS011;38422;53.172;6.974;2024-03-07T00:44:06;10.30;;;7.38;;
52512;SDS011;38422;53.172;6.974;2024-03-07T00:46:37;11.98;;;7.60;;
52512;SDS011;38422;53.172;6.974;2024-03-07T00:49:03;12.15;;;7.75;;
52512;SDS011;38422;53.172;6.974;2024-03-07T00:51:30;10.18;;;7.18;;
52512;SDS011;38422;53.172;6.974;2024-03-07T00:53:56;11.68;;;7.22;;
52512;SDS011;38422;53.172;6.974;2024-03-07T00:56:23;9.85;;;7.30;;
52512;SDS011;38422;53.172;6.974;2024-03-07T00:58:49;10.13;;;7.15;;
52512;SDS011;38422;53.172;6.974;2024-03-07T01:01:18;9.73;;;7.32;;
52512;SDS011;38422;53.172;6.974;2024-03-07T01:03:44;11.02;;;7.85;;
52512;SDS011;38422;53.172;6.974;2024-03-07T01:06:10;10.65;;;8.15;;
52512;SDS011;38422;53.172;6.974;2024-03-07T01:08:39;11.05;;;7.30;;
52512;SDS011;38422;53.172;6.974;2024-03-07T01:11:05;9.73;;;7.38;;
52512;SDS011;38422;53.172;6.974;2024-03-07T01:13:40;11.00;;;7.38;;
52512;SDS011;38422;53.172;6.974;2024-03-07T01:16:07;10.05;;;7.50;;
52512;SDS011;38422;53.172;6.974;2024-03-07T01:18:33;11.65;;;7.50;;
52512;SDS011;38422;53.172;6.974;2024-03-07T01:21:02;9.70;;;7.47;;
52512;SDS011;38422;53.172;6.974;2024-03-07T01:23:30;9.70;;;7.68;;
52512;SDS011;38422;53.172;6.974;2024-03-07T01:25:56;10.63;;;7.47;;
52512;SDS011;38422;53.172;6.974;2024-03-07T01:28:24;10.18;;;7.38;;
52512;SDS011;38422;53.172;6.974;2024-03-07T01:30:50;13.13;;;8.13;;
52512;SDS011;38422;53.172;6.974;2024-03-07T01:33:17;11.07;;;7.85;;
52512;SDS011;38422;53.172;6.974;2024-03-07T01:35:44;11.07;;;7.55;;
52512;SDS011;38422;53.172;6.974;2024-03-07T01:38:10;10.05;;;7.28;;
52512;SDS011;38422;53.172;6.974;2024-03-07T01:40:39;11.05;;;7.65;;
52512;SDS011;38422;53.172;6.974;2024-03-07T01:43:08;9.38;;;7.18;;
52512;SDS011;38422;53.172;6.974;2024-03-07T01:45:35;11.05;;;8.00;;
52512;SDS011;38422;53.172;6.974;2024-03-07T01:48:08;9.93;;;7.53;;
52512;SDS011;38422;53.172;6.974;2024-03-07T01:50:35;9.90;;;7.10;;
52512;SDS011;38422;53.172;6.974;2024-03-07T01:53:04;9.73;;;7.28;;
52512;SDS011;38422;53.172;6.974;2024-03-07T01:55:31;10.73;;;7.32;;
52512;SDS011;38422;53.172;6.974;2024-03-07T01:58:02;11.43;;;7.03;;
52512;SDS011;38422;53.172;6.974;2024-03-07T02:00:29;10.77;;;7.35;;
52512;SDS011;38422;53.172;6.974;2024-03-07T02:02:56;10.48;;;8.00;;
52512;SDS011;38422;53.172;6.974;2024-03-07T02:05:22;10.95;;;7.32;;
52512;SDS011;38422;53.172;6.974;2024-03-07T02:07:49;10.25;;;7.20;;
52512;SDS011;38422;53.172;6.974;2024-03-07T02:10:16;10.75;;;7.72;;
52512;SDS011;38422;53.172;6.974;2024-03-07T02:12:43;10.07;;;7.30;;
52512;SDS011;38422;53.172;6.974;2024-03-07T02:15:08;10.00;;;7.28;;
52512;SDS011;38422;53.172;6.974;2024-03-07T02:17:34;9.50;;;7.03;;
52512;SDS011;38422;53.172;6.974;2024-03-07T02:20:02;11.60;;;7.47;;
52512;SDS011;38422;53.172;6.974;2024-03-07T02:22:29;10.60;;;7.85;;
52512;SDS011;38422;53.172;6.974;2024-03-07T02:24:55;9.98;;;7.68;;
52512;SDS011;38422;53.172;6.974;2024-03-07T02:27:20;10.57;;;7.65;;
52512;SDS011;38422;53.172;6.974;2024-03-07T02:29:46;13.00;;;8.18;;
52512;SDS011;38422;53.172;6.974;2024-03-07T02:32:12;11.10;;;7.82;;
52512;SDS011;38422;53.172;6.974;2024-03-07T02:34:38;10.90;;;7.78;;
52512;SDS011;38422;53.172;6.974;2024-03-07T02:37:04;11.65;;;7.72;;
52512;SDS011;38422;53.172;6.974;2024-03-07T02:39:29;10.70;;;7.45;;
52512;SDS011;38422;53.172;6.974;2024-03-07T02:41:55;10.40;;;7.78;;
52512;SDS011;38422;53.172;6.974;2024-03-07T02:44:21;9.75;;;7.38;;
52512;SDS011;38422;53.172;6.974;2024-03-07T02:46:47;12.10;;;8.02;;
52512;SDS011;38422;53.172;6.974;2024-03-07T02:49:15;10.60;;;7.60;;
52512;SDS011;38422;53.172;6.974;2024-03-07T02:51:41;10.73;;;7.80;;
52512;SDS011;38422;53.172;6.974;2024-03-07T02:54:07;9.38;;;7.45;;
52512;SDS011;38422;53.172;6.974;2024-03-07T02:56:33;10.63;;;7.63;;
52512;SDS011;38422;53.172;6.974;2024-03-07T02:59:00;10.43;;;7.82;;
52512;SDS011;38422;53.172;6.974;2024-03-07T03:01:26;11.15;;;8.02;;
52512;SDS011;38422;53.172;6.974;2024-03-07T03:03:51;12.15;;;7.90;;
52512;SDS011;38422;53.172;6.974;2024-03-07T03:06:17;10.52;;;7.93;;
52512;SDS011;38422;53.172;6.974;2024-03-07T03:08:46;10.00;;;7.70;;
52512;SDS011;38422;53.172;6.974;2024-03-07T03:11:12;11.80;;;8.30;;
52512;SDS011;38422;53.172;6.974;2024-03-07T03:13:38;10.00;;;7.65;;
52512;SDS011;38422;53.172;6.974;2024-03-07T03:16:05;11.02;;;7.88;;
52512;SDS011;38422;53.172;6.974;2024-03-07T03:18:34;10.50;;;7.63;;
52512;SDS011;38422;53.172;6.974;2024-03-07T03:21:00;10.38;;;7.50;;
52512;SDS011;38422;53.172;6.974;2024-03-07T03:23:27;10.83;;;7.93;;
52512;SDS011;38422;53.172;6.974;2024-03-07T03:25:53;9.32;;;7.07;;
52512;SDS011;38422;53.172;6.974;2024-03-07T03:28:20;10.27;;;7.67;;
52512;SDS011;38422;53.172;6.974;2024-03-07T03:30:46;10.60;;;8.00;;
52512;SDS011;38422;53.172;6.974;2024-03-07T03:33:13;12.23;;;8.03;;
52512;SDS011;38422;53.172;6.974;2024-03-07T03:35:38;11.00;;;8.02;;
52512;SDS011;38422;53.172;6.974;2024-03-07T03:38:05;10.45;;;8.18;;
52512;SDS011;38422;53.172;6.974;2024-03-07T03:40:31;11.77;;;9.02;;
52512;SDS011;38422;53.172;6.974;2024-03-07T03:42:57;11.40;;;8.20;;
52512;SDS011;38422;53.172;6.974;2024-03-07T03:45:23;11.05;;;8.13;;
52512;SDS011;38422;53.172;6.974;2024-03-07T03:47:50;10.73;;;8.10;;
52512;SDS011;38422;53.172;6.974;2024-03-07T03:50:16;11.07;;;8.00;;
52512;SDS011;38422;53.172;6.974;2024-03-07T03:52:48;11.10;;;7.57;;
52512;SDS011;38422;53.172;6.974;2024-03-07T03:55:13;10.77;;;8.13;;
52512;SDS011;38422;53.172;6.974;2024-03-07T03:57:42;11.65;;;8.73;;
52512;SDS011;38422;53.172;6.974;2024-03-07T04:00:09;10.77;;;8.07;;
52512;SDS011;38422;53.172;6.974;2024-03-07T04:02:43;11.02;;;8.20;;
52512;SDS011;38422;53.172;6.974;2024-03-07T04:05:13;11.80;;;8.30;;
52512;SDS011;38422;53.172;6.974;2024-03-07T04:07:40;10.98;;;8.82;;
52512;SDS011;38422;53.172;6.974;2024-03-07T04:10:07;10.77;;;8.43;;
52512;SDS011;38422;53.172;6.974;2024-03-07T04:12:38;12.15;;;8.40;;
52512;SDS011;38422;53.172;6.974;2024-03-07T04:15:09;11.68;;;8.85;;
52512;SDS011;38422;53.172;6.974;2024-03-07T04:17:36;12.05;;;9.15;;
52512;SDS011;38422;53.172;6.974;2024-03-07T04:20:02;12.67;;;9.00;;
52512;SDS011;38422;53.172;6.974;2024-03-07T04:22:32;11.10;;;8.77;;
52512;SDS011;38422;53.172;6.974;2024-03-07T04:24:59;11.97;;;9.33;;
52512;SDS011;38422;53.172;6.974;2024-03-07T04:27:26;11.13;;;8.85;;
52512;SDS011;38422;53.172;6.974;2024-03-07T04:29:52;12.45;;;8.95;;
52512;SDS011;38422;53.172;6.974;2024-03-07T04:32:18;11.90;;;9.02;;
52512;SDS011;38422;53.172;6.974;2024-03-07T04:34:43;13.45;;;8.77;;
52512;SDS011;38422;53.172;6.974;2024-03-07T04:37:09;11.77;;;9.65;;
52512;SDS011;38422;53.172;6.974;2024-03-07T04:39:36;13.07;;;9.35;;
52512;SDS011;38422;53.172;6.974;2024-03-07T04:42:05;13.32;;;10.15;;
52512;SDS011;38422;53.172;6.974;2024-03-07T04:44:32;11.68;;;9.63;;
52512;SDS011;38422;53.172;6.974;2024-03-07T04:47:00;13.93;;;10.48;;
52512;SDS011;38422;53.172;6.974;2024-03-07T04:49:28;12.93;;;10.18;;
52512;SDS011;38422;53.172;6.974;2024-03-07T04:51:55;13.48;;;10.80;;
52512;SDS011;38422;53.172;6.974;2024-03-07T04:54:23;14.50;;;11.15;;
52512;SDS011;38422;53.172;6.974;2024-03-07T04:56:49;15.03;;;10.77;;
52512;SDS011;38422;53.172;6.974;2024-03-07T04:59:16;16.33;;;12.50;;
52512;SDS011;38422;53.172;6.974;2024-03-07T05:01:43;15.30;;;11.60;;
52512;SDS011;38422;53.172;6.974;2024-03-07T05:04:10;15.57;;;11.97;;
52512;SDS011;38422;53.172;6.974;2024-03-07T05:06:37;15.68;;;12.02;;
52512;SDS011;38422;53.172;6.974;2024-03-07T05:09:03;16.45;;;12.07;;
52512;SDS011;38422;53.172;6.974;2024-03-07T05:11:32;15.45;;;12.50;;
52512;SDS011;38422;53.172;6.974;2024-03-07T05:13:58;16.58;;;12.35;;
52512;SDS011;38422;53.172;6.974;2024-03-07T05:16:28;15.65;;;11.20;;
52512;SDS011;38422;53.172;6.974;2024-03-07T05:18:59;17.85;;;11.77;;
52512;SDS011;38422;53.172;6.974;2024-03-07T05:21:27;18.15;;;12.02;;
52512;SDS011;38422;53.172;6.974;2024-03-07T05:23:59;17.92;;;11.63;;
52512;SDS011;38422;53.172;6.974;2024-03-07T05:26:25;18.10;;;12.07;;
52512;SDS011;38422;53.172;6.974;2024-03-07T05:28:52;17.35;;;11.90;;
52512;SDS011;38422;53.172;6.974;2024-03-07T05:31:19;20.73;;;12.20;;
52512;SDS011;38422;53.172;6.974;2024-03-07T05:33:46;17.45;;;8.60;;
52512;SDS011;38422;53.172;6.974;2024-03-07T05:36:12;19.35;;;9.90;;
52512;SDS011;38422;53.172;6.974;2024-03-07T05:38:41;19.25;;;10.32;;
52512;SDS011;38422;53.172;6.974;2024-03-07T05:41:13;20.83;;;10.75;;
52512;SDS011;38422;53.172;6.974;2024-03-07T05:43:39;21.00;;;11.10;;
52512;SDS011;38422;53.172;6.974;2024-03-07T05:46:05;24.00;;;11.18;;
52512;SDS011;38422;53.172;6.974;2024-03-07T05:48:35;23.05;;;10.23;;
52512;SDS011;38422;53.172;6.974;2024-03-07T05:51:01;20.58;;;9.88;;
52512;SDS011;38422;53.172;6.974;2024-03-07T05:53:27;24.10;;;10.15;;
52512;SDS011;38422;53.172;6.974;2024-03-07T05:55:52;23.83;;;10.65;;
52512;SDS011;38422;53.172;6.974;2024-03-07T05:58:19;22.80;;;10.48;;
52512;SDS011;38422;53.172;6.974;2024-03-07T06:00:45;21.73;;;10.23;;
52512;SDS011;38422;53.172;6.974;2024-03-07T06:03:15;24.48;;;10.63;;
52512;SDS011;38422;53.172;6.974;2024-03-07T06:05:43;26.25;;;12.68;;
52512;SDS011;38422;53.172;6.974;2024-03-07T06:08:13;24.40;;;10.23;;
52512;SDS011;38422;53.172;6.974;2024-03-07T06:10:46;25.00;;;11.48;;
52512;SDS011;38422;53.172;6.974;2024-03-07T06:13:13;25.85;;;11.60;;
52512;SDS011;38422;53.172;6.974;2024-03-07T06:15:42;25.38;;;11.90;;
52512;SDS011;38422;53.172;6.974;2024-03-07T06:18:09;26.77;;;11.02;;
52512;SDS011;38422;53.172;6.974;2024-03-07T06:20:45;27.33;;;11.98;;
52512;SDS011;38422;53.172;6.974;2024-03-07T06:23:10;26.08;;;11.65;;
52512;SDS011;38422;53.172;6.974;2024-03-07T06:25:41;26.85;;;11.95;;
52512;SDS011;38422;53.172;6.974;2024-03-07T06:28:17;24.95;;;11.65;;
52512;SDS011;38422;53.172;6.974;2024-03-07T06:30:46;26.80;;;11.82;;
52512;SDS011;38422;53.172;6.974;2024-03-07T06:33:12;26.25;;;11.85;;
52512;SDS011;38422;53.172;6.974;2024-03-07T06:35:39;24.33;;;11.13;;
52512;SDS011;38422;53.172;6.974;2024-03-07T06:38:06;26.13;;;11.48;;
52512;SDS011;38422;53.172;6.974;2024-03-07T06:40:34;26.88;;;11.60;;
52512;SDS011;38422;53.172;6.974;2024-03-07T06:43:00;28.83;;;12.23;;
52512;SDS011;38422;53.172;6.974;2024-03-07T06:45:29;25.05;;;10.30;;
52512;SDS011;38422;53.172;6.974;2024-03-07T06:47:55;25.38;;;10.15;;
52512;SDS011;38422;53.172;6.974;2024-03-07T06:50:21;24.65;;;10.45;;
52512;SDS011;38422;53.172;6.974;2024-03-07T06:52:48;26.42;;;10.43;;
52512;SDS011;38422;53.172;6.974;2024-03-07T06:55:15;24.20;;;10.75;;
52512;SDS011;38422;53.172;6.974;2024-03-07T06:57:42;25.50;;;11.30;;
52512;SDS011;38422;53.172;6.974;2024-03-07T07:00:09;23.95;;;10.88;;
52512;SDS011;38422;53.172;6.974;2024-03-07T07:02:42;25.38;;;10.75;;
52512;SDS011;38422;53.172;6.974;2024-03-07T07:05:08;26.70;;;12.82;;
52512;SDS011;38422;53.172;6.974;2024-03-07T07:07:40;27.23;;;12.63;;
52512;SDS011;38422;53.172;6.974;2024-03-07T07:10:09;29.33;;;12.13;;
52512;SDS011;38422;53.172;6.974;2024-03-07T07:12:50;31.42;;;12.73;;
52512;SDS011;38422;53.172;6.974;2024-03-07T07:15:20;25.33;;;11.32;;
52512;SDS011;38422;53.172;6.974;2024-03-07T07:17:46;30.08;;;11.65;;
52512;SDS011;38422;53.172;6.974;2024-03-07T07:20:13;25.13;;;11.82;;
52512;SDS011;38422;53.172;6.974;2024-03-07T07:22:47;23.45;;;10.57;;
52512;SDS011;38422;53.172;6.974;2024-03-07T07:25:13;25.65;;;11.55;;
52512;SDS011;38422;53.172;6.974;2024-03-07T07:27:43;24.77;;;11.13;;
52512;SDS011;38422;53.172;6.974;2024-03-07T07:30:11;24.42;;;11.38;;
52512;SDS011;38422;53.172;6.974;2024-03-07T07:32:39;21.33;;;10.20;;
52512;SDS011;38422;53.172;6.974;2024-03-07T07:35:05;20.65;;;10.05;;
52512;SDS011;38422;53.172;6.974;2024-03-07T07:37:43;20.15;;;9.75;;
52512;SDS011;38422;53.172;6.974;2024-03-07T07:40:11;19.42;;;8.73;;
52512;SDS011;38422;53.172;6.974;2024-03-07T07:42:40;19.50;;;9.45;;
52512;SDS011;38422;53.172;6.974;2024-03-07T07:45:10;19.92;;;9.27;;
52512;SDS011;38422;53.172;6.974;2024-03-07T07:47:39;17.67;;;8.88;;
52512;SDS011;38422;53.172;6.974;2024-03-07T07:50:14;17.23;;;8.82;;
52512;SDS011;38422;53.172;6.974;2024-03-07T07:52:44;18.42;;;9.07;;
52512;SDS011;38422;53.172;6.974;2024-03-07T07:55:18;18.02;;;8.48;;
52512;SDS011;38422;53.172;6.974;2024-03-07T07:57:54;18.42;;;8.40;;
52512;SDS011;38422;53.172;6.974;2024-03-07T08:00:22;18.67;;;8.02;;
52512;SDS011;38422;53.172;6.974;2024-03-07T08:02:53;17.75;;;8.20;;
52512;SDS011;38422;53.172;6.974;2024-03-07T08:05:20;16.88;;;8.02;;
52512;SDS011;38422;53.172;6.974;2024-03-07T08:07:50;17.02;;;7.93;;
52512;SDS011;38422;53.172;6.974;2024-03-07T08:10:17;16.63;;;7.88;;
52512;SDS011;38422;53.172;6.974;2024-03-07T08:12:43;15.85;;;7.82;;
52512;SDS011;38422;53.172;6.974;2024-03-07T08:15:11;18.67;;;8.00;;
52512;SDS011;38422;53.172;6.974;2024-03-07T08:17:45;18.20;;;8.40;;
52512;SDS011;38422;53.172;6.974;2024-03-07T08:20:12;16.23;;;7.47;;
52512;SDS011;38422;53.172;6.974;2024-03-07T08:22:49;16.80;;;7.72;;
52512;SDS011;38422;53.172;6.974;2024-03-07T08:25:22;17.42;;;8.45;;
52512;SDS011;38422;53.172;6.974;2024-03-07T08:27:49;18.52;;;7.75;;
52512;SDS011;38422;53.172;6.974;2024-03-07T08:30:16;16.85;;;7.75;;
52512;SDS011;38422;53.172;6.974;2024-03-07T08:32:42;19.25;;;8.45;;
52512;SDS011;38422;53.172;6.974;2024-03-07T08:35:12;15.32;;;8.23;;
52512;SDS011;38422;53.172;6.974;2024-03-07T08:37:39;19.73;;;8.18;;
52512;SDS011;38422;53.172;6.974;2024-03-07T08:40:05;20.38;;;8.00;;
52512;SDS011;38422;53.172;6.974;2024-03-07T08:42:35;17.60;;;8.40;;
52512;SDS011;38422;53.172;6.974;2024-03-07T08:45:01;16.70;;;8.30;;
52512;SDS011;38422;53.172;6.974;2024-03-07T08:47:32;15.02;;;6.90;;
52512;SDS011;38422;53.172;6.974;2024-03-07T08:49:59;16.35;;;8.13;;
52512;SDS011;38422;53.172;6.974;2024-03-07T08:52:25;15.25;;;7.47;;
52512;SDS011;38422;53.172;6.974;2024-03-07T08:54:52;19.35;;;8.10;;
52512;SDS011;38422;53.172;6.974;2024-03-07T08:57:19;19.02;;;8.48;;
52512;SDS011;38422;53.172;6.974;2024-03-07T08:59:45;17.47;;;7.33;;
52512;SDS011;38422;53.172;6.974;2024-03-07T09:02:12;17.55;;;8.20;;
52512;SDS011;38422;53.172;6.974;2024-03-07T09:04:38;16.02;;;7.78;;
52512;SDS011;38422;53.172;6.974;2024-03-07T09:07:04;17.65;;;7.97;;
52512;SDS011;38422;53.172;6.974;2024-03-07T09:09:31;15.50;;;6.80;;
52512;SDS011;38422;53.172;6.974;2024-03-07T09:11:57;16.75;;;7.78;;
52512;SDS011;38422;53.172;6.974;2024-03-07T09:14:23;15.75;;;7.95;;
52512;SDS011;38422;53.172;6.974;2024-03-07T09:16:49;16.63;;;7.32;;
52512;SDS011;38422;53.172;6.974;2024-03-07T09:19:16;18.30;;;7.10;;
52512;SDS011;38422;53.172;6.974;2024-03-07T09:21:45;17.50;;;8.00;;
52512;SDS011;38422;53.172;6.974;2024-03-07T09:24:12;17.73;;;8.27;;
52512;SDS011;38422;53.172;6.974;2024-03-07T09:26:40;15.82;;;7.90;;
52512;SDS011;38422;53.172;6.974;2024-03-07T09:29:06;16.38;;;7.47;;
52512;SDS011;38422;53.172;6.974;2024-03-07T09:31:32;19.52;;;8.70;;
52512;SDS011;38422;53.172;6.974;2024-03-07T09:33:58;17.92;;;8.43;;
52512;SDS011;38422;53.172;6.974;2024-03-07T09:36:24;21.48;;;12.32;;
52512;SDS011;38422;53.172;6.974;2024-03-07T09:38:53;21.35;;;12.90;;
52512;SDS011;38422;53.172;6.974;2024-03-07T09:41:19;18.17;;;11.27;;
52512;SDS011;38422;53.172;6.974;2024-03-07T09:43:48;19.70;;;11.52;;
52512;SDS011;38422;53.172;6.974;2024-03-07T09:46:29;21.73;;;11.45;;
52512;SDS011;38422;53.172;6.974;2024-03-07T09:49:02;21.13;;;12.80;;
52512;SDS011;38422;53.172;6.974;2024-03-07T09:51:36;22.08;;;12.02;;
52512;SDS011;38422;53.172;6.974;2024-03-07T09:54:02;21.75;;;11.88;;
52512;SDS011;38422;53.172;6.974;2024-03-07T09:56:28;21.17;;;11.07;;
52512;SDS011;38422;53.172;6.974;2024-03-07T09:58:57;19.90;;;11.07;;
52512;SDS011;38422;53.172;6.974;2024-03-07T10:01:27;23.77;;;14.90;;
52512;SDS011;38422;53.172;6.974;2024-03-07T10:03:59;24.25;;;14.75;;
52512;SDS011;38422;53.172;6.974;2024-03-07T10:06:39;23.77;;;13.70;;
52512;SDS011;38422;53.172;6.974;2024-03-07T10:09:10;25.15;;;13.75;;
52512;SDS011;38422;53.172;6.974;2024-03-07T10:11:42;24.55;;;14.52;;
52512;SDS011;38422;53.172;6.974;2024-03-07T10:14:09;21.33;;;12.75;;
52512;SDS011;38422;53.172;6.974;2024-03-07T10:16:35;25.88;;;13.50;;
52512;SDS011;38422;53.172;6.974;2024-03-07T10:19:04;22.08;;;12.82;;
52512;SDS011;38422;53.172;6.974;2024-03-07T10:21:30;23.60;;;13.57;;
52512;SDS011;38422;53.172;6.974;2024-03-07T10:24:07;24.20;;;13.55;;
52512;SDS011;38422;53.172;6.974;2024-03-07T10:26:37;23.83;;;13.00;;
52512;SDS011;38422;53.172;6.974;2024-03-07T10:29:06;25.60;;;13.27;;
52512;SDS011;38422;53.172;6.974;2024-03-07T10:31:35;22.50;;;13.50;;
52512;SDS011;38422;53.172;6.974;2024-03-07T10:34:04;22.13;;;13.25;;
52512;SDS011;38422;53.172;6.974;2024-03-07T10:36:33;22.73;;;13.30;;
52512;SDS011;38422;53.172;6.974;2024-03-07T10:39:01;23.05;;;13.13;;
52512;SDS011;38422;53.172;6.974;2024-03-07T10:41:29;25.42;;;13.70;;
52512;SDS011;38422;53.172;6.974;2024-03-07T10:44:01;22.48;;;13.32;;
52512;SDS011;38422;53.172;6.974;2024-03-07T10:46:31;22.88;;;13.45;;
52512;SDS011;38422;53.172;6.974;2024-03-07T10:48:58;21.85;;;12.52;;
52512;SDS011;38422;53.172;6.974;2024-03-07T10:51:32;20.55;;;12.38;;
52512;SDS011;38422;53.172;6.974;2024-03-07T10:54:13;21.40;;;12.13;;
52512;SDS011;38422;53.172;6.974;2024-03-07T10:57:06;20.27;;;12.25;;
52512;SDS011;38422;53.172;6.974;2024-03-07T10:59:50;21.10;;;12.32;;
52512;SDS011;38422;53.172;6.974;2024-03-07T11:05:10;20.90;;;12.73;;
52512;SDS011;38422;53.172;6.974;2024-03-07T11:10:04;18.13;;;9.20;;
52512;SDS011;38422;53.172;6.974;2024-03-07T11:12:36;18.27;;;9.10;;
52512;SDS011;38422;53.172;6.974;2024-03-07T11:15:06;17.70;;;9.07;;
52512;SDS011;38422;53.172;6.974;2024-03-07T11:17:43;19.50;;;9.02;;
52512;SDS011;38422;53.172;6.974;2024-03-07T11:20:27;18.67;;;9.40;;
52512;SDS011;38422;53.172;6.974;2024-03-07T11:23:00;17.65;;;8.10;;
52512;SDS011;38422;53.172;6.974;2024-03-07T11:27:58;18.90;;;9.05;;
52512;SDS011;38422;53.172;6.974;2024-03-07T11:30:26;15.40;;;8.32;;
52512;SDS011;38422;53.172;6.974;2024-03-07T11:32:52;19.48;;;9.65;;
52512;SDS011;38422;53.172;6.974;2024-03-07T11:35:19;18.45;;;8.75;;
52512;SDS011;38422;53.172;6.974;2024-03-07T11:37:57;19.65;;;8.98;;
52512;SDS011;38422;53.172;6.974;2024-03-07T11:42:50;18.60;;;8.77;;
52512;SDS011;38422;53.172;6.974;2024-03-07T11:45:21;15.23;;;8.15;;
52512;SDS011;38422;53.172;6.974;2024-03-07T11:47:53;16.73;;;7.88;;
52512;SDS011;38422;53.172;6.974;2024-03-07T11:50:46;15.60;;;7.97;;
52512;SDS011;38422;53.172;6.974;2024-03-07T11:53:12;16.13;;;7.90;;
52512;SDS011;38422;53.172;6.974;2024-03-07T11:55:38;14.52;;;7.40;;
52512;SDS011;38422;53.172;6.974;2024-03-07T11:58:14;13.55;;;7.93;;
52512;SDS011;38422;53.172;6.974;2024-03-07T12:00:42;13.80;;;7.35;;
52512;SDS011;38422;53.172;6.974;2024-03-07T12:03:12;14.20;;;6.70;;
52512;SDS011;38422;53.172;6.974;2024-03-07T12:05:43;14.75;;;7.47;;
52512;SDS011;38422;53.172;6.974;2024-03-07T12:08:12;13.57;;;6.95;;
52512;SDS011;38422;53.172;6.974;2024-03-07T12:10:39;12.45;;;6.55;;
52512;SDS011;38422;53.172;6.974;2024-03-07T12:13:09;13.90;;;7.30;;
52512;SDS011;38422;53.172;6.974;2024-03-07T12:15:40;14.13;;;7.10;;
52512;SDS011;38422;53.172;6.974;2024-03-07T12:18:07;14.30;;;7.57;;
52512;SDS011;38422;53.172;6.974;2024-03-07T12:20:41;12.95;;;7.07;;
52512;SDS011;38422;53.172;6.974;2024-03-07T12:23:12;14.48;;;6.93;;
52512;SDS011;38422;53.172;6.974;2024-03-07T12:25:38;13.25;;;7.05;;
52512;SDS011;38422;53.172;6.974;2024-03-07T12:28:06;13.18;;;7.18;;
52512;SDS011;38422;53.172;6.974;2024-03-07T12:30:49;14.23;;;7.28;;
52512;SDS011;38422;53.172;6.974;2024-03-07T12:33:16;12.15;;;6.78;;
52512;SDS011;38422;53.172;6.974;2024-03-07T12:35:45;14.73;;;6.97;;
52512;SDS011;38422;53.172;6.974;2024-03-07T12:38:20;12.45;;;6.57;;
52512;SDS011;38422;53.172;6.974;2024-03-07T12:41:01;11.13;;;6.50;;
52512;SDS011;38422;53.172;6.974;2024-03-07T12:43:31;11.93;;;6.40;;
52512;SDS011;38422;53.172;6.974;2024-03-07T12:45:57;14.02;;;7.45;;
52512;SDS011;38422;53.172;6.974;2024-03-07T12:48:24;12.05;;;6.85;;
52512;SDS011;38422;53.172;6.974;2024-03-07T12:50:50;14.68;;;6.93;;
52512;SDS011;38422;53.172;6.974;2024-03-07T12:53:24;12.57;;;6.95;;
52512;SDS011;38422;53.172;6.974;2024-03-07T12:55:51;11.98;;;6.80;;
52512;SDS011;38422;53.172;6.974;2024-03-07T12:58:20;13.20;;;6.95;;
52512;SDS011;38422;53.172;6.974;2024-03-07T13:00:51;13.45;;;7.00;;
52512;SDS011;38422;53.172;6.974;2024-03-07T13:03:20;13.25;;;7.00;;
52512;SDS011;38422;53.172;6.974;2024-03-07T13:05:47;12.30;;;6.45;;
52512;SDS011;38422;53.172;6.974;2024-03-07T13:08:12;13.23;;;6.43;;
52512;SDS011;38422;53.172;6.974;2024-03-07T13:10:41;11.80;;;6.82;;
52512;SDS011;38422;53.172;6.974;2024-03-07T13:13:08;11.50;;;6.15;;
52512;SDS011;38422;53.172;6.974;2024-03-07T13:15:37;12.57;;;6.82;;
52512;SDS011;38422;53.172;6.974;2024-03-07T13:18:04;12.65;;;6.15;;
52512;SDS011;38422;53.172;6.974;2024-03-07T13:20:30;11.77;;;6.82;;
52512;SDS011;38422;53.172;6.974;2024-03-07T13:22:57;12.02;;;6.82;;
52512;SDS011;38422;53.172;6.974;2024-03-07T13:25:26;11.98;;;5.53;;
52512;SDS011;38422;53.172;6.974;2024-03-07T13:28:12;10.95;;;5.07;;
52512;SDS011;38422;53.172;6.974;2024-03-07T13:30:41;11.73;;;5.35;;
52512;SDS011;38422;53.172;6.974;2024-03-07T13:33:09;8.75;;;4.93;;
52512;SDS011;38422;53.172;6.974;2024-03-07T13:35:39;12.07;;;5.15;;
52512;SDS011;38422;53.172;6.974;2024-03-07T13:38:05;9.47;;;5.17;;
52512;SDS011;38422;53.172;6.974;2024-03-07T13:40:32;8.97;;;4.77;;
52512;SDS011;38422;53.172;6.974;2024-03-07T13:43:03;14.07;;;5.38;;
52512;SDS011;38422;53.172;6.974;2024-03-07T13:45:31;10.50;;;5.00;;
52512;SDS011;38422;53.172;6.974;2024-03-07T13:48:09;10.80;;;4.93;;
52512;SDS011;38422;53.172;6.974;2024-03-07T13:50:38;10.43;;;4.85;;
52512;SDS011;38422;53.172;6.974;2024-03-07T13:53:05;11.27;;;5.15;;
52512;SDS011;38422;53.172;6.974;2024-03-07T13:58:13;11.38;;;5.25;;
52512;SDS011;38422;53.172;6.974;2024-03-07T14:29:37;10.93;;;5.10;;
52512;SDS011;38422;53.172;6.974;2024-03-07T14:32:05;9.75;;;4.80;;
52512;SDS011;38422;53.172;6.974;2024-03-07T14:37:23;14.23;;;5.90;;
52512;SDS011;38422;53.172;6.974;2024-03-07T14:39:55;11.85;;;5.25;;
52512;SDS011;38422;53.172;6.974;2024-03-07T14:42:35;11.75;;;5.65;;
52512;SDS011;38422;53.172;6.974;2024-03-07T14:45:07;10.40;;;5.30;;
52512;SDS011;38422;53.172;6.974;2024-03-07T14:47:38;12.85;;;5.40;;
52512;SDS011;38422;53.172;6.974;2024-03-07T14:50:04;12.80;;;5.75;;
52512;SDS011;38422;53.172;6.974;2024-03-07T14:52:35;10.13;;;5.18;;
52512;SDS011;38422;53.172;6.974;2024-03-07T14:55:06;12.15;;;5.70;;
52512;SDS011;38422;53.172;6.974;2024-03-07T14:57:33;10.18;;;5.22;;
52512;SDS011;38422;53.172;6.974;2024-03-07T14:59:59;11.13;;;5.55;;
52512;SDS011;38422;53.172;6.974;2024-03-07T15:02:25;13.85;;;5.90;;
52512;SDS011;38422;53.172;6.974;2024-03-07T15:04:52;10.95;;;5.35;;
52512;SDS011;38422;53.172;6.974;2024-03-07T15:07:20;13.98;;;6.00;;
52512;SDS011;38422;53.172;6.974;2024-03-07T15:09:48;10.40;;;5.40;;
52512;SDS011;38422;53.172;6.974;2024-03-07T15:12:15;12.03;;;5.80;;
52512;SDS011;38422;53.172;6.974;2024-03-07T15:14:41;12.15;;;5.85;;
52512;SDS011;38422;53.172;6.974;2024-03-07T15:17:07;11.68;;;5.60;;
52512;SDS011;38422;53.172;6.974;2024-03-07T15:19:33;11.10;;;5.32;;
52512;SDS011;38422;53.172;6.974;2024-03-07T15:22:00;11.57;;;5.78;;
52512;SDS011;38422;53.172;6.974;2024-03-07T15:24:28;12.82;;;5.95;;